KVPZ/VPZ METAR and TAF weather

Enter ICAO airport designator
Station Type Date Time Source
KVPZ METAR 2018/12/10 07:56 UTC NOAA

KVPZ 100756Z AUTO 35004KT 7SM OVC012 M01/M05 A3028 RMK AO2 SLP263 T10061050


Station Type Date Time Source
KVPZ Decoded METAR 2018/12/10 07:56 UTC NOAA

VALPARAISO PORTER CO MUNI, IN, United States (KVPZ) 41-27N 087-00W 231M
Dec 10, 2018 - 02:56 AM EST / 2018.12.10 0756 UTC
Wind: from the N (350 degrees) at 5 MPH (4 KT):0
Visibility: 7 mile(s):0
Sky conditions: overcast
Temperature: 30.9 F (-0.6 C)
Windchill: 26 F (-3 C):1
Dew Point: 23.0 F (-5.0 C)
Relative Humidity: 72%
Pressure (altimeter): 30.28 in. Hg (1025 hPa)
ob: KVPZ 100756Z AUTO 35004KT 7SM OVC012 M01/M05 A3028 RMK AO2 SLP263 T10061050
cycle: 8

Station Type Date Time Source
KVPZ TAF UTC NOAA

Error!


Example: see airport list